createdAt,value
2023-04-30T00:00:08.634Z,8.15
2023-04-30T00:02:37.527Z,10.00
2023-04-30T00:05:05.036Z,7.85
2023-04-30T00:07:32.330Z,7.78
2023-04-30T00:09:59.309Z,7.85
2023-04-30T00:12:26.402Z,7.70
2023-04-30T00:14:53.423Z,7.45
2023-04-30T00:17:20.891Z,8.02
2023-04-30T00:19:47.828Z,8.23
2023-04-30T00:22:14.772Z,8.20
2023-04-30T00:24:41.711Z,7.90
2023-04-30T00:27:08.740Z,8.00
2023-04-30T00:29:35.790Z,8.25
2023-04-30T00:32:02.988Z,7.53
2023-04-30T00:34:30.204Z,8.43
2023-04-30T00:36:57.195Z,8.55
2023-04-30T00:39:24.240Z,8.23
2023-04-30T00:41:51.236Z,8.65
2023-04-30T00:44:18.161Z,8.27
2023-04-30T00:46:45.154Z,8.07
2023-04-30T00:49:12.137Z,8.57
2023-04-30T00:51:42.206Z,7.82
2023-04-30T00:54:09.420Z,8.02
2023-04-30T00:56:36.641Z,7.85
2023-04-30T00:59:03.836Z,7.68
2023-04-30T01:01:31.847Z,6.78
2023-04-30T01:03:58.986Z,7.25
2023-04-30T01:06:27.121Z,8.88
2023-04-30T01:08:54.501Z,8.35
2023-04-30T01:11:50.062Z,8.07
2023-04-30T01:14:37.299Z,8.88
2023-04-30T01:17:10.021Z,8.45
2023-04-30T01:19:44.297Z,8.77
2023-04-30T01:22:30.308Z,8.65
2023-04-30T01:25:15.853Z,8.80
2023-04-30T01:27:58.168Z,9.40
2023-04-30T01:30:26.097Z,9.02
2023-04-30T01:32:53.222Z,9.07
2023-04-30T01:35:20.559Z,8.90
2023-04-30T01:38:29.972Z,9.90
2023-04-30T01:41:19.662Z,8.90
2023-04-30T01:44:03.584Z,8.60
2023-04-30T01:46:31.966Z,8.68
2023-04-30T01:49:02.260Z,8.82
2023-04-30T01:51:56.095Z,9.35
2023-04-30T01:54:56.178Z,8.68
2023-04-30T01:57:33.167Z,9.60
2023-04-30T02:00:00.963Z,8.48
2023-04-30T02:02:28.711Z,9.05
2023-04-30T02:04:55.722Z,9.50
2023-04-30T02:07:45.348Z,11.07
2023-04-30T02:10:13.129Z,8.13
2023-04-30T02:12:40.839Z,9.15
2023-04-30T02:15:11.344Z,9.63
2023-04-30T02:20:09.120Z,8.82
2023-04-30T02:22:36.696Z,8.93
2023-04-30T02:25:04.331Z,8.65
2023-04-30T02:27:32.873Z,9.02
2023-04-30T02:30:00.761Z,8.80
2023-04-30T02:32:27.822Z,10.10
2023-04-30T02:34:54.916Z,9.15
2023-04-30T02:37:22.040Z,8.73
2023-04-30T02:39:49.535Z,8.90
2023-04-30T02:42:16.594Z,9.13
2023-04-30T02:44:43.786Z,9.25
2023-04-30T02:47:11.066Z,8.90
2023-04-30T02:49:38.873Z,9.60
2023-04-30T02:52:07.254Z,9.05
2023-04-30T02:54:34.300Z,9.18
2023-04-30T02:57:01.506Z,9.25
2023-04-30T02:59:28.621Z,9.02
2023-04-30T03:01:55.802Z,9.38
2023-04-30T03:04:22.928Z,8.90
2023-04-30T03:06:49.875Z,9.20
2023-04-30T03:09:16.975Z,9.38
2023-04-30T03:11:43.949Z,9.40
2023-04-30T03:14:10.867Z,9.38
2023-04-30T03:16:38.394Z,9.77
2023-04-30T03:19:05.459Z,8.48
2023-04-30T03:21:32.775Z,9.52
2023-04-30T03:23:59.747Z,9.45
2023-04-30T03:26:27.399Z,9.93
2023-04-30T03:28:55.872Z,7.82
2023-04-30T03:31:23.788Z,7.90
2023-04-30T03:33:51.190Z,8.40
2023-04-30T03:36:18.190Z,8.35
2023-04-30T03:38:45.290Z,8.38
2023-04-30T03:41:12.337Z,7.88
2023-04-30T03:43:39.461Z,7.80
2023-04-30T03:46:06.598Z,7.75
2023-04-30T03:48:33.672Z,8.27
2023-04-30T03:51:00.729Z,7.53
2023-04-30T03:53:27.852Z,7.90
2023-04-30T03:55:55.204Z,8.32
2023-04-30T03:58:22.723Z,8.68
2023-04-30T04:00:50.083Z,8.45
2023-04-30T04:03:17.595Z,8.93
2023-04-30T04:05:44.698Z,8.70
2023-04-30T04:08:12.029Z,8.77
2023-04-30T04:10:40.302Z,9.25
2023-04-30T04:13:08.764Z,10.02
2023-04-30T04:15:36.261Z,9.63
2023-04-30T04:18:04.027Z,9.07
2023-04-30T04:20:32.494Z,7.90
2023-04-30T04:22:59.679Z,8.73
2023-04-30T04:25:27.467Z,8.95
2023-04-30T04:27:54.621Z,8.30
2023-04-30T04:30:21.592Z,8.38
2023-04-30T04:32:54.166Z,8.65
2023-04-30T04:35:21.433Z,8.73
2023-04-30T04:37:48.572Z,8.63
2023-04-30T04:40:15.715Z,8.93
2023-04-30T04:42:42.734Z,8.75
2023-04-30T04:45:11.256Z,9.20
2023-04-30T04:47:39.323Z,9.07
2023-04-30T04:50:07.078Z,8.80
2023-04-30T04:52:34.029Z,8.95
2023-04-30T04:55:01.104Z,8.98
2023-04-30T04:57:28.181Z,9.35
2023-04-30T04:59:55.583Z,8.48
2023-04-30T05:02:23.712Z,8.13
2023-04-30T05:04:51.890Z,8.73
2023-04-30T05:07:19.533Z,9.05
2023-04-30T05:09:47.393Z,8.73
2023-04-30T05:12:17.537Z,9.00
2023-04-30T05:14:45.122Z,9.25
2023-04-30T05:17:12.159Z,8.85
2023-04-30T05:19:39.187Z,9.85
2023-04-30T05:22:06.269Z,9.30
2023-04-30T05:24:34.244Z,9.20
2023-04-30T05:27:03.039Z,9.38
2023-04-30T05:29:30.023Z,9.70
2023-04-30T05:31:57.062Z,10.73
2023-04-30T05:34:24.182Z,9.75
2023-04-30T05:36:51.082Z,9.75
2023-04-30T05:39:18.044Z,9.00
2023-04-30T05:41:44.968Z,9.68
2023-04-30T05:44:11.888Z,9.45
2023-04-30T05:46:38.955Z,8.75
2023-04-30T05:49:05.927Z,9.30
2023-04-30T05:51:33.095Z,9.77
2023-04-30T05:54:00.484Z,9.48
2023-04-30T05:56:27.671Z,8.80
2023-04-30T05:58:54.598Z,9.60
2023-04-30T06:01:22.331Z,9.23
2023-04-30T06:03:49.340Z,9.48
2023-04-30T06:06:16.457Z,9.75
2023-04-30T06:08:45.458Z,9.40
2023-04-30T06:11:15.777Z,8.48
2023-04-30T06:13:42.943Z,8.73
2023-04-30T06:16:10.065Z,10.45
2023-04-30T06:18:37.073Z,10.85
2023-04-30T06:21:04.192Z,9.38
2023-04-30T06:23:31.562Z,10.35
2023-04-30T06:25:58.509Z,10.73
2023-04-30T06:28:25.611Z,10.05
2023-04-30T06:30:54.342Z,10.40
2023-04-30T06:33:21.846Z,10.95
2023-04-30T06:35:50.920Z,10.60
2023-04-30T06:38:20.710Z,10.77
2023-04-30T06:40:48.036Z,9.73
2023-04-30T06:43:14.935Z,10.55
2023-04-30T06:45:41.906Z,10.73
2023-04-30T06:48:10.129Z,10.20
2023-04-30T06:50:43.929Z,10.38
2023-04-30T06:53:14.752Z,10.20
2023-04-30T06:55:42.746Z,9.90
2023-04-30T06:58:09.946Z,9.05
2023-04-30T07:00:36.936Z,9.23
2023-04-30T07:03:04.893Z,9.43
2023-04-30T07:05:32.278Z,8.90
2023-04-30T07:08:03.950Z,9.25
2023-04-30T07:10:31.686Z,7.40
2023-04-30T07:12:59.373Z,7.30
2023-04-30T07:15:26.564Z,6.60
2023-04-30T07:17:53.677Z,5.80
2023-04-30T07:20:20.823Z,4.45
2023-04-30T07:22:47.762Z,3.67
2023-04-30T07:25:15.169Z,3.70
2023-04-30T07:27:42.303Z,3.00
2023-04-30T07:30:10.861Z,2.47
2023-04-30T07:32:38.671Z,2.15
2023-04-30T07:35:06.304Z,2.35
2023-04-30T07:37:35.421Z,2.53
2023-04-30T07:40:03.674Z,2.60
2023-04-30T07:42:30.652Z,2.55
2023-04-30T07:44:57.567Z,2.33
2023-04-30T07:47:25.607Z,2.55
2023-04-30T07:49:52.921Z,2.10
2023-04-30T07:52:20.353Z,2.38
2023-04-30T07:54:47.334Z,2.28
2023-04-30T07:57:14.337Z,2.50
2023-04-30T07:59:41.490Z,2.38
2023-04-30T08:02:09.563Z,2.33
2023-04-30T08:04:36.620Z,2.40
2023-04-30T08:07:04.694Z,2.35
2023-04-30T08:09:31.788Z,2.30
2023-04-30T08:11:58.947Z,2.20
2023-04-30T08:14:26.050Z,2.28
2023-04-30T08:16:53.184Z,2.28
2023-04-30T08:19:20.157Z,2.17
2023-04-30T08:21:47.392Z,2.25
2023-04-30T08:24:14.332Z,2.20
2023-04-30T08:26:41.412Z,2.35
2023-04-30T08:29:11.069Z,2.03
2023-04-30T08:31:38.223Z,2.25
2023-04-30T08:34:05.122Z,1.85
2023-04-30T08:36:34.637Z,2.00
2023-04-30T08:39:03.580Z,2.22
2023-04-30T08:41:36.305Z,1.92
2023-04-30T08:44:05.732Z,2.42
2023-04-30T08:46:37.639Z,1.90
2023-04-30T08:49:07.203Z,1.98
2023-04-30T08:51:38.826Z,2.10
2023-04-30T08:54:09.580Z,2.03
2023-04-30T08:56:42.682Z,2.28
2023-04-30T08:59:09.868Z,2.28
2023-04-30T09:01:37.837Z,1.80
2023-04-30T09:04:06.237Z,2.08
2023-04-30T09:06:33.465Z,2.00
2023-04-30T09:09:11.683Z,2.30
2023-04-30T09:11:39.030Z,2.10
2023-04-30T09:14:06.403Z,2.25
2023-04-30T09:16:51.190Z,2.10
2023-04-30T09:19:31.116Z,2.05
2023-04-30T09:21:58.545Z,2.20
2023-04-30T09:24:26.169Z,2.42
2023-04-30T09:26:54.517Z,1.90
2023-04-30T09:29:21.754Z,1.80
2023-04-30T09:31:48.919Z,2.00
2023-04-30T09:34:16.391Z,2.03
2023-04-30T09:36:56.956Z,2.20
2023-04-30T09:39:24.527Z,1.70
2023-04-30T09:41:59.275Z,1.83
2023-04-30T09:44:34.465Z,1.83
2023-04-30T09:47:14.869Z,2.00
2023-04-30T09:49:55.502Z,1.92
2023-04-30T09:52:25.262Z,2.15
2023-04-30T09:54:53.949Z,1.80
2023-04-30T09:57:25.783Z,2.15
2023-04-30T09:59:55.330Z,2.17
2023-04-30T10:02:24.294Z,1.88
2023-04-30T10:05:00.211Z,2.00
2023-04-30T10:07:39.869Z,1.90
2023-04-30T10:10:12.377Z,2.13
2023-04-30T10:12:48.180Z,1.88
2023-04-30T10:15:28.394Z,1.67
2023-04-30T10:18:04.552Z,1.83
2023-04-30T10:20:40.150Z,1.70
2023-04-30T10:23:18.958Z,1.80
2023-04-30T10:25:48.153Z,1.90
2023-04-30T10:28:25.557Z,2.03
2023-04-30T10:31:36.569Z,1.95
2023-04-30T10:38:31.705Z,1.80
2023-04-30T10:41:02.805Z,1.67
2023-04-30T10:43:35.420Z,1.70
2023-04-30T10:46:03.491Z,1.90
2023-04-30T10:48:35.568Z,1.67
2023-04-30T10:51:03.030Z,1.60
2023-04-30T10:53:36.681Z,1.67
2023-04-30T10:56:09.348Z,1.55
2023-04-30T10:58:41.114Z,2.00
2023-04-30T11:01:20.762Z,2.30
2023-04-30T11:04:07.518Z,1.90
2023-04-30T11:06:53.698Z,2.05
2023-04-30T11:09:29.389Z,2.20
2023-04-30T11:12:03.834Z,2.10
2023-04-30T11:14:34.029Z,2.00
2023-04-30T11:17:03.953Z,2.00
2023-04-30T11:19:34.691Z,2.00
2023-04-30T11:22:04.861Z,1.90
2023-04-30T11:24:51.423Z,1.88
2023-04-30T11:27:24.423Z,2.10
2023-04-30T11:29:53.364Z,1.90
2023-04-30T11:32:23.536Z,1.98
2023-04-30T11:34:51.896Z,1.63
2023-04-30T11:37:30.645Z,1.90
2023-04-30T11:40:00.705Z,2.03
2023-04-30T11:42:29.660Z,1.90
2023-04-30T11:45:09.347Z,1.70
2023-04-30T11:47:52.143Z,1.60
2023-04-30T11:50:27.440Z,1.98
2023-04-30T11:52:56.161Z,2.00
2023-04-30T11:55:25.976Z,1.50
2023-04-30T11:58:47.781Z,1.70
2023-04-30T12:01:43.662Z,1.77
2023-04-30T12:04:19.790Z,1.50
2023-04-30T12:06:51.131Z,1.95
2023-04-30T12:09:20.627Z,1.80
2023-04-30T12:11:51.842Z,1.63
2023-04-30T12:14:25.829Z,2.00
2023-04-30T12:16:55.065Z,1.75
2023-04-30T12:19:25.552Z,1.70
2023-04-30T12:21:55.529Z,2.22
2023-04-30T12:24:23.802Z,2.00
2023-04-30T12:26:53.994Z,2.10
2023-04-30T12:29:23.407Z,1.98
2023-04-30T12:31:53.605Z,2.05
2023-04-30T12:34:20.795Z,2.05
2023-04-30T12:36:47.928Z,2.15
2023-04-30T12:39:16.425Z,2.03
2023-04-30T12:41:49.299Z,2.10
2023-04-30T12:44:23.791Z,2.25
2023-04-30T12:46:56.296Z,2.33
2023-04-30T12:49:28.300Z,2.30
2023-04-30T12:52:04.118Z,2.30
2023-04-30T12:54:33.125Z,2.30
2023-04-30T12:57:11.214Z,2.40
2023-04-30T12:59:40.883Z,2.20
2023-04-30T13:02:13.971Z,2.50
2023-04-30T13:04:42.691Z,2.53
2023-04-30T13:07:11.871Z,2.10
2023-04-30T13:09:38.897Z,2.15
2023-04-30T13:12:06.527Z,2.20
2023-04-30T13:14:34.303Z,2.05
2023-04-30T13:17:05.048Z,2.20
2023-04-30T13:19:32.497Z,2.40
2023-04-30T13:22:00.460Z,2.30
2023-04-30T13:24:27.937Z,2.10
2023-04-30T13:26:54.989Z,2.40
2023-04-30T13:29:21.942Z,2.00
2023-04-30T13:31:49.269Z,2.40
2023-04-30T13:34:16.276Z,2.15
2023-04-30T13:36:43.392Z,2.17
2023-04-30T13:39:11.795Z,2.22
2023-04-30T13:41:38.931Z,2.38
2023-04-30T13:44:05.906Z,2.28
2023-04-30T13:46:32.947Z,2.38
2023-04-30T13:48:59.944Z,2.45
2023-04-30T13:51:27.986Z,2.40
2023-04-30T13:53:55.069Z,2.53
2023-04-30T13:56:22.293Z,2.10
2023-04-30T13:58:49.405Z,2.42
2023-04-30T14:01:16.754Z,2.17
2023-04-30T14:03:47.851Z,2.50
2023-04-30T14:06:15.062Z,2.17
2023-04-30T14:08:42.090Z,2.35
2023-04-30T14:11:09.175Z,2.53
2023-04-30T14:13:40.848Z,2.40
2023-04-30T14:16:08.131Z,2.13
2023-04-30T14:18:35.149Z,2.13
2023-04-30T14:21:02.093Z,2.15
2023-04-30T14:23:32.142Z,2.40
2023-04-30T14:25:59.459Z,2.10
2023-04-30T14:28:26.671Z,2.50
2023-04-30T14:30:53.878Z,2.33
2023-04-30T14:33:20.915Z,2.28
2023-04-30T14:47:32.287Z,2.83
2023-04-30T14:49:59.210Z,3.20
2023-04-30T14:52:26.205Z,2.67
2023-04-30T14:54:53.468Z,2.58
2023-04-30T14:58:45.294Z,2.40
2023-04-30T15:13:04.220Z,2.40
2023-04-30T15:16:22.663Z,2.00
2023-04-30T15:22:51.160Z,2.40
2023-04-30T15:25:18.183Z,2.33
2023-04-30T15:27:45.528Z,2.35
2023-04-30T15:30:12.642Z,2.53
2023-04-30T15:32:43.068Z,2.50
2023-04-30T15:35:10.357Z,2.50
2023-04-30T15:37:37.939Z,2.50
2023-04-30T15:40:05.689Z,2.20
2023-04-30T15:42:33.642Z,2.13
2023-04-30T15:45:04.176Z,2.20
2023-04-30T15:47:33.024Z,2.42
2023-04-30T15:50:03.073Z,2.40
2023-04-30T15:52:31.977Z,2.55
2023-04-30T15:54:59.376Z,2.33
2023-04-30T15:57:26.293Z,2.08
2023-04-30T15:59:55.301Z,2.33
2023-04-30T16:02:22.798Z,2.30
2023-04-30T16:04:50.646Z,2.42
2023-04-30T16:07:21.046Z,2.40
2023-04-30T16:09:49.907Z,2.35
2023-04-30T16:12:17.384Z,2.15
2023-04-30T16:14:47.574Z,2.40
2023-04-30T16:17:31.178Z,2.22
2023-04-30T16:20:01.651Z,2.50
2023-04-30T16:22:29.366Z,2.28
2023-04-30T16:24:56.392Z,2.58
2023-04-30T16:27:24.272Z,2.33
2023-04-30T16:29:52.794Z,2.03
2023-04-30T16:32:24.418Z,2.30
2023-04-30T16:34:52.898Z,2.30
2023-04-30T16:37:19.898Z,2.40
2023-04-30T16:39:57.592Z,2.28
2023-04-30T16:47:02.841Z,2.50
2023-04-30T16:49:31.162Z,2.60
2023-04-30T16:51:58.407Z,2.40
2023-04-30T16:55:10.980Z,2.30
2023-04-30T16:57:42.446Z,2.50
2023-04-30T17:00:23.452Z,2.20
2023-04-30T17:03:16.462Z,2.28
2023-04-30T17:05:49.521Z,2.40
2023-04-30T17:08:30.188Z,2.65
2023-04-30T17:11:22.924Z,3.25
2023-04-30T17:20:48.201Z,2.42
2023-04-30T17:23:19.338Z,2.65
2023-04-30T17:25:56.282Z,2.70
2023-04-30T17:28:24.124Z,2.55
2023-04-30T17:30:51.387Z,2.70
2023-04-30T17:33:18.382Z,2.50
2023-04-30T17:35:45.472Z,3.10
2023-04-30T17:46:03.639Z,2.72
2023-04-30T17:48:34.915Z,2.60
2023-04-30T17:51:52.838Z,2.75
2023-04-30T17:54:28.361Z,2.60
2023-04-30T17:56:59.289Z,3.00
2023-04-30T18:02:19.870Z,2.80
2023-04-30T18:04:57.686Z,2.80
2023-04-30T18:11:53.801Z,3.03
2023-04-30T18:14:34.240Z,2.90
2023-04-30T18:20:26.396Z,2.58
2023-04-30T18:22:53.623Z,2.92
2023-04-30T18:25:21.008Z,2.95
2023-04-30T18:27:51.403Z,3.67
2023-04-30T18:30:18.490Z,3.38
2023-04-30T18:32:52.224Z,3.10
2023-04-30T18:35:31.109Z,3.40
2023-04-30T18:51:17.680Z,3.28
2023-04-30T18:53:45.362Z,2.90
2023-04-30T18:56:12.615Z,3.00
2023-04-30T18:58:39.672Z,4.07
2023-04-30T19:01:08.521Z,4.30
2023-04-30T19:03:35.783Z,3.90
2023-04-30T19:06:03.969Z,3.47
2023-04-30T19:08:31.129Z,3.20
2023-04-30T19:10:58.164Z,4.05
2023-04-30T19:13:25.172Z,3.35
2023-04-30T19:15:53.805Z,3.30
2023-04-30T19:18:21.242Z,3.30
2023-04-30T19:20:57.222Z,2.95
2023-04-30T19:23:24.242Z,2.85
2023-04-30T19:25:51.317Z,3.47
2023-04-30T19:28:18.299Z,4.45
2023-04-30T19:30:45.437Z,3.50
2023-04-30T19:33:12.503Z,3.20
2023-04-30T19:35:40.138Z,3.20
2023-04-30T19:42:20.136Z,3.10
2023-04-30T19:44:51.718Z,3.08
2023-04-30T19:47:18.997Z,2.80
2023-04-30T19:49:51.605Z,3.58
2023-04-30T19:52:19.306Z,3.75
2023-04-30T19:54:50.061Z,3.10
2023-04-30T19:57:33.699Z,3.83
2023-04-30T20:01:06.703Z,3.47
2023-04-30T20:03:48.441Z,3.08
2023-04-30T20:06:31.131Z,3.67
2023-04-30T20:09:14.337Z,3.25
2023-04-30T20:11:55.137Z,3.63
2023-04-30T20:14:31.000Z,3.95
2023-04-30T20:17:02.922Z,3.90
2023-04-30T20:19:31.817Z,3.85
2023-04-30T20:22:00.056Z,3.70
2023-04-30T20:33:13.328Z,3.47
2023-04-30T20:36:23.515Z,3.58
2023-04-30T20:39:07.790Z,3.10
2023-04-30T20:42:03.008Z,2.92
2023-04-30T20:44:40.588Z,3.58
2023-04-30T20:47:11.702Z,3.58
2023-04-30T20:49:43.990Z,3.58
2023-04-30T20:52:19.574Z,3.90
2023-04-30T20:55:33.954Z,3.67
2023-04-30T21:02:44.646Z,3.97
2023-04-30T21:05:45.753Z,3.47
2023-04-30T21:12:39.676Z,3.53
2023-04-30T21:19:07.954Z,3.47
2023-04-30T21:21:36.439Z,3.17
2023-04-30T21:24:05.133Z,3.60
2023-04-30T21:26:57.014Z,3.63
2023-04-30T21:32:25.912Z,3.22
2023-04-30T21:35:00.424Z,3.90
2023-04-30T21:37:29.795Z,3.50
2023-04-30T21:39:57.047Z,3.28
2023-04-30T21:42:24.650Z,3.22
2023-04-30T21:46:17.709Z,3.50
2023-04-30T21:51:56.446Z,3.55
2023-04-30T22:03:24.194Z,3.75
2023-04-30T22:06:13.504Z,8.95
2023-04-30T22:09:34.878Z,5.57
2023-04-30T22:13:14.896Z,11.70
2023-04-30T22:15:48.446Z,7.45
2023-04-30T22:19:47.845Z,4.68
2023-04-30T22:22:17.671Z,3.58
2023-04-30T22:30:12.728Z,3.55
2023-04-30T22:32:43.170Z,3.40
2023-04-30T22:35:22.169Z,3.40
2023-04-30T22:37:50.059Z,3.53
2023-04-30T22:52:50.587Z,3.88
2023-04-30T22:55:27.926Z,3.88
2023-04-30T22:58:39.304Z,3.83
2023-04-30T23:07:23.443Z,3.72
2023-04-30T23:10:16.388Z,3.65
2023-04-30T23:15:39.803Z,3.70
2023-04-30T23:18:14.118Z,3.90
2023-04-30T23:20:40.982Z,4.00
2023-04-30T23:23:07.904Z,3.58
2023-04-30T23:25:40.106Z,3.97
2023-04-30T23:28:09.837Z,3.78
2023-04-30T23:30:40.207Z,3.58
2023-04-30T23:33:10.189Z,3.97
2023-04-30T23:35:37.722Z,4.10
2023-04-30T23:38:05.108Z,4.20
2023-04-30T23:40:32.482Z,3.92
2023-04-30T23:43:07.602Z,4.40
2023-04-30T23:45:44.921Z,3.92
2023-04-30T23:48:32.671Z,4.20
2023-04-30T23:51:05.328Z,4.38
2023-04-30T23:53:35.672Z,3.95
2023-04-30T23:56:57.020Z,4.10
2023-04-30T23:59:26.520Z,3.53
